createdAt,value
2019-03-24T00:01:25.881Z,8.70
2019-03-24T00:03:55.404Z,8.60
2019-03-24T00:06:24.764Z,8.60
2019-03-24T00:08:54.187Z,8.50
2019-03-24T00:11:23.625Z,8.60
2019-03-24T00:13:52.972Z,8.70
2019-03-24T00:16:22.361Z,8.60
2019-03-24T00:18:51.720Z,8.60
2019-03-24T00:21:21.115Z,8.50
2019-03-24T00:23:50.489Z,8.50
2019-03-24T00:26:19.833Z,8.50
2019-03-24T00:28:49.192Z,8.50
2019-03-24T00:31:18.604Z,8.60
2019-03-24T00:33:47.953Z,8.60
2019-03-24T00:36:17.289Z,8.60
2019-03-24T00:38:46.706Z,8.60
2019-03-24T00:41:16.042Z,8.70
2019-03-24T00:43:45.368Z,8.70
2019-03-24T00:46:14.761Z,8.70
2019-03-24T00:48:44.158Z,8.70
2019-03-24T00:51:13.556Z,8.70
2019-03-24T00:53:42.954Z,8.80
2019-03-24T00:56:12.281Z,8.70
2019-03-24T00:58:41.733Z,8.80
2019-03-24T01:01:11.067Z,8.80
2019-03-24T01:03:40.463Z,8.80
2019-03-24T01:06:09.867Z,8.80
2019-03-24T01:08:39.287Z,8.80
2019-03-24T01:11:08.737Z,8.90
2019-03-24T01:13:38.168Z,8.90
2019-03-24T01:16:07.505Z,8.90
2019-03-24T01:18:36.928Z,8.80
2019-03-24T01:21:06.380Z,8.90
2019-03-24T01:23:59.149Z,8.90
2019-03-24T01:26:29.005Z,8.90
2019-03-24T01:29:17.786Z,8.80
2019-03-24T01:31:47.240Z,8.80
2019-03-24T01:34:16.713Z,8.80
2019-03-24T01:36:46.233Z,8.70
2019-03-24T01:39:15.588Z,8.70
2019-03-24T01:41:44.931Z,8.70
2019-03-24T01:44:14.349Z,8.60
2019-03-24T01:46:43.782Z,8.60
2019-03-24T01:49:13.203Z,8.50
2019-03-24T01:51:42.563Z,8.50
2019-03-24T01:54:12.016Z,8.50
2019-03-24T01:56:41.452Z,8.50
2019-03-24T01:59:10.823Z,8.50
2019-03-24T02:01:40.230Z,8.40
2019-03-24T02:04:09.617Z,8.40
2019-03-24T02:06:38.968Z,8.40
2019-03-24T02:09:09.422Z,8.40
2019-03-24T02:15:24.149Z,8.40
2019-03-24T02:17:53.591Z,8.30
2019-03-24T02:20:22.944Z,8.30
2019-03-24T02:22:52.362Z,8.30
2019-03-24T02:25:21.756Z,8.30
2019-03-24T02:27:51.196Z,8.20
2019-03-24T02:30:20.639Z,8.20
2019-03-24T02:32:50.076Z,8.30
2019-03-24T02:35:19.508Z,8.30
2019-03-24T02:37:48.846Z,8.30
2019-03-24T02:40:18.419Z,8.20
2019-03-24T02:42:47.805Z,8.20
2019-03-24T02:45:17.325Z,8.20
2019-03-24T02:47:46.742Z,8.20
2019-03-24T02:50:16.503Z,8.10
2019-03-24T02:52:45.983Z,8.10
2019-03-24T02:55:15.395Z,8.00
2019-03-24T02:57:44.745Z,8.00
2019-03-24T03:00:14.555Z,7.90
2019-03-24T03:02:44.094Z,7.90
2019-03-24T03:05:13.961Z,7.90
2019-03-24T03:07:43.315Z,7.90
2019-03-24T03:10:13.324Z,7.90
2019-03-24T03:12:42.693Z,7.90
2019-03-24T03:15:13.313Z,7.90
2019-03-24T03:17:42.706Z,7.90
2019-03-24T03:20:13.402Z,7.80
2019-03-24T03:22:42.747Z,7.80
2019-03-24T03:25:12.589Z,7.70
2019-03-24T03:27:42.049Z,7.70
2019-03-24T03:30:12.711Z,7.80
2019-03-24T03:32:42.217Z,7.70
2019-03-24T03:35:12.101Z,7.70
2019-03-24T03:37:41.496Z,7.60
2019-03-24T03:40:11.295Z,7.60
2019-03-24T03:42:40.953Z,7.60
2019-03-24T03:45:11.288Z,7.60
2019-03-24T03:47:40.725Z,7.50
2019-03-24T03:50:10.324Z,7.50
2019-03-24T03:52:39.717Z,7.40
2019-03-24T03:55:09.768Z,7.40
2019-03-24T03:57:58.065Z,7.50
2019-03-24T04:00:34.782Z,7.40
2019-03-24T04:03:05.576Z,7.40
2019-03-24T04:05:35.012Z,7.40
2019-03-24T04:08:04.652Z,7.30
2019-03-24T04:10:34.429Z,7.30
2019-03-24T04:13:03.857Z,7.30
2019-03-24T04:15:33.379Z,7.20
2019-03-24T04:18:02.814Z,7.20
2019-03-24T04:20:32.202Z,7.10
2019-03-24T04:23:01.642Z,7.10
2019-03-24T04:25:31.071Z,7.20
2019-03-24T04:28:00.448Z,7.20
2019-03-24T04:30:29.816Z,7.10
2019-03-24T04:32:59.157Z,7.10
2019-03-24T04:35:28.589Z,7.10
2019-03-24T04:37:58.008Z,7.00
2019-03-24T04:40:27.399Z,7.00
2019-03-24T04:42:56.825Z,7.10
2019-03-24T04:45:26.197Z,7.10
2019-03-24T04:47:55.505Z,7.00
2019-03-24T04:50:24.866Z,7.00
2019-03-24T04:52:54.280Z,6.90
2019-03-24T04:55:23.618Z,6.90
2019-03-24T04:57:52.988Z,6.90
2019-03-24T05:00:33.724Z,6.80
2019-03-24T05:03:03.161Z,6.70
2019-03-24T05:05:32.669Z,6.70
2019-03-24T05:08:02.641Z,6.60
2019-03-24T05:10:32.183Z,6.60
2019-03-24T05:13:01.539Z,6.60
2019-03-24T05:15:30.904Z,6.60
2019-03-24T05:18:00.354Z,6.60
2019-03-24T05:20:29.694Z,6.50
2019-03-24T05:22:59.100Z,6.50
2019-03-24T05:25:28.445Z,6.50
2019-03-24T05:27:57.813Z,6.40
2019-03-24T05:30:27.305Z,6.40
2019-03-24T05:32:56.635Z,6.40
2019-03-24T05:35:26.101Z,6.30
2019-03-24T05:37:55.495Z,6.30
2019-03-24T05:40:24.855Z,6.50
2019-03-24T05:42:54.220Z,6.40
2019-03-24T05:45:23.668Z,6.40
2019-03-24T05:47:53.119Z,6.40
2019-03-24T05:50:22.432Z,6.30
2019-03-24T05:52:51.776Z,6.30
2019-03-24T05:55:21.105Z,6.40
2019-03-24T05:57:50.487Z,6.40
2019-03-24T06:00:20.021Z,6.40
2019-03-24T06:02:49.376Z,6.40
2019-03-24T06:05:18.759Z,6.30
2019-03-24T06:07:48.175Z,6.30
2019-03-24T06:10:17.533Z,6.40
2019-03-24T06:12:46.904Z,6.50
2019-03-24T06:15:16.329Z,6.50
2019-03-24T06:18:04.810Z,6.50
2019-03-24T06:20:53.252Z,6.50
2019-03-24T06:23:41.613Z,6.40
2019-03-24T06:26:29.949Z,6.50
2019-03-24T06:29:18.306Z,6.30
2019-03-24T06:32:06.666Z,6.50
2019-03-24T06:34:55.057Z,6.50
2019-03-24T06:37:43.452Z,6.50
2019-03-24T06:40:31.994Z,6.50
2019-03-24T06:43:20.567Z,6.40
2019-03-24T06:46:09.144Z,6.40
2019-03-24T06:48:57.501Z,6.50
2019-03-24T06:51:45.930Z,6.50
2019-03-24T06:54:34.289Z,6.60
2019-03-24T06:57:22.682Z,6.60
2019-03-24T07:00:11.291Z,6.50
2019-03-24T07:02:59.742Z,6.50
2019-03-24T07:05:48.437Z,6.40
2019-03-24T07:08:36.734Z,6.50
2019-03-24T07:11:25.257Z,6.70
2019-03-24T07:14:13.842Z,6.70
2019-03-24T07:17:02.375Z,6.60
2019-03-24T07:19:50.700Z,6.60
2019-03-24T07:22:39.061Z,6.60
2019-03-24T07:25:27.432Z,6.50
2019-03-24T07:28:15.840Z,6.60
2019-03-24T07:31:04.216Z,6.60
2019-03-24T07:33:52.545Z,6.50
2019-03-24T07:36:41.087Z,6.40
2019-03-24T07:39:29.528Z,6.70
2019-03-24T07:42:17.897Z,6.80
2019-03-24T07:45:06.374Z,6.90
2019-03-24T07:47:54.733Z,6.80
2019-03-24T07:50:43.080Z,6.70
2019-03-24T07:53:31.515Z,6.70
2019-03-24T07:56:19.825Z,6.70
2019-03-24T07:59:08.211Z,6.70
2019-03-24T08:01:56.668Z,6.70
2019-03-24T08:04:37.186Z,6.80
2019-03-24T08:07:18.071Z,6.80
2019-03-24T08:09:58.766Z,6.80
2019-03-24T08:12:39.539Z,6.60
2019-03-24T08:15:20.177Z,6.80
2019-03-24T08:18:01.024Z,6.80
2019-03-24T08:20:41.993Z,7.00
2019-03-24T08:23:23.019Z,7.00
2019-03-24T08:26:04.304Z,7.00
2019-03-24T08:28:45.045Z,7.00
2019-03-24T08:31:25.942Z,6.90
2019-03-24T08:34:06.943Z,7.10
2019-03-24T08:36:47.833Z,7.20
2019-03-24T08:39:28.643Z,7.20
2019-03-24T08:42:09.160Z,7.30
2019-03-24T08:44:50.842Z,7.20
2019-03-24T08:47:31.891Z,7.00
2019-03-24T08:50:13.063Z,7.00
2019-03-24T08:52:52.571Z,7.10
2019-03-24T08:58:35.471Z,7.30
2019-03-24T09:01:23.820Z,7.40
2019-03-24T09:04:12.315Z,7.30
2019-03-24T09:09:37.806Z,7.30
2019-03-24T09:12:18.639Z,7.20
2019-03-24T09:14:59.969Z,7.30
2019-03-24T09:17:41.266Z,7.40
2019-03-24T09:20:29.537Z,7.50
2019-03-24T09:23:17.863Z,7.40
2019-03-24T09:26:06.199Z,7.40
2019-03-24T09:28:54.568Z,7.30
2019-03-24T09:31:43.183Z,7.30
2019-03-24T09:34:31.586Z,7.40
2019-03-24T09:37:19.993Z,7.50
2019-03-24T09:43:23.933Z,7.30
2019-03-24T09:46:12.264Z,7.40
2019-03-24T09:49:03.340Z,7.30
2019-03-24T09:51:50.716Z,7.40
2019-03-24T09:54:39.102Z,7.40
2019-03-24T09:57:27.453Z,7.40
2019-03-24T10:00:15.870Z,7.70
2019-03-24T10:03:04.316Z,7.50
2019-03-24T10:05:52.871Z,7.70
2019-03-24T10:08:34.195Z,7.70
2019-03-24T10:11:16.433Z,7.70
2019-03-24T10:13:57.534Z,7.70
2019-03-24T10:16:38.097Z,8.00
2019-03-24T10:19:19.058Z,8.20
2019-03-24T10:21:58.578Z,8.20
2019-03-24T10:24:47.035Z,8.10
2019-03-24T10:27:35.365Z,8.00
2019-03-24T10:30:23.794Z,8.00
2019-03-24T10:33:12.150Z,8.20
2019-03-24T10:36:00.584Z,8.00
2019-03-24T10:38:48.905Z,8.30
2019-03-24T10:41:37.450Z,8.70
2019-03-24T10:44:25.806Z,8.80
2019-03-24T10:47:14.112Z,8.60
2019-03-24T10:50:02.631Z,8.10
2019-03-24T10:52:51.016Z,8.20
2019-03-24T10:55:39.365Z,8.20
2019-03-24T10:58:27.896Z,8.50
2019-03-24T11:01:35.208Z,8.50
2019-03-24T11:04:23.539Z,8.40
2019-03-24T11:07:04.863Z,8.20
2019-03-24T11:09:46.014Z,8.60
2019-03-24T11:12:26.959Z,8.70
2019-03-24T11:15:08.445Z,8.80
2019-03-24T11:17:49.913Z,8.70
2019-03-24T11:20:31.129Z,8.60
2019-03-24T11:23:11.781Z,8.90
2019-03-24T11:25:52.568Z,8.80
2019-03-24T11:28:33.633Z,8.80
2019-03-24T11:31:14.412Z,8.60
2019-03-24T11:33:54.955Z,8.70
2019-03-24T11:36:35.808Z,8.80
2019-03-24T11:39:18.751Z,8.80
2019-03-24T11:42:00.001Z,8.90
2019-03-24T11:44:40.516Z,8.70
2019-03-24T11:47:26.446Z,8.70
2019-03-24T11:50:05.455Z,8.80
2019-03-24T11:52:46.049Z,9.00
2019-03-24T11:55:26.768Z,9.10
2019-03-24T11:58:07.468Z,9.40
2019-03-24T12:00:48.124Z,9.40
2019-03-24T12:03:28.876Z,9.40
2019-03-24T12:06:14.329Z,9.30
2019-03-24T12:08:56.151Z,9.20
2019-03-24T12:11:43.696Z,9.20
2019-03-24T12:14:24.730Z,9.10
2019-03-24T12:17:05.521Z,9.20
2019-03-24T12:19:56.296Z,9.10
2019-03-24T12:22:29.423Z,9.10
2019-03-24T12:25:11.341Z,9.20
2019-03-24T12:27:53.874Z,9.40
2019-03-24T12:30:42.313Z,9.40
2019-03-24T12:33:30.679Z,9.20
2019-03-24T12:36:19.126Z,9.20
2019-03-24T12:39:07.614Z,9.20
2019-03-24T12:41:56.005Z,9.30
2019-03-24T12:44:44.680Z,9.30
2019-03-24T12:47:33.224Z,9.30
2019-03-24T12:50:30.918Z,9.30
2019-03-24T12:53:12.159Z,9.40
2019-03-24T12:56:00.594Z,9.40
2019-03-24T12:58:48.986Z,9.40
2019-03-24T13:01:37.429Z,9.60
2019-03-24T13:04:25.948Z,9.60
2019-03-24T13:07:14.311Z,9.60
2019-03-24T13:10:02.654Z,9.60
2019-03-24T13:12:43.313Z,9.60
2019-03-24T13:15:24.274Z,9.70
2019-03-24T13:18:04.681Z,9.90
2019-03-24T13:20:45.493Z,9.80
2019-03-24T13:23:26.219Z,9.60
2019-03-24T13:26:07.401Z,9.50
2019-03-24T13:28:48.167Z,9.60
2019-03-24T13:31:29.152Z,9.70
2019-03-24T13:34:10.491Z,9.80
2019-03-24T13:39:33.586Z,10.10
2019-03-24T13:42:03.918Z,10.20
2019-03-24T13:44:33.583Z,10.30
2019-03-24T13:47:22.074Z,10.10
2019-03-24T13:50:10.626Z,10.40
2019-03-24T13:52:59.177Z,10.50
2019-03-24T13:55:47.584Z,10.70
2019-03-24T13:58:36.002Z,10.80
2019-03-24T14:01:24.489Z,10.80
2019-03-24T14:04:12.853Z,11.20
2019-03-24T14:07:02.074Z,10.80
2019-03-24T14:09:50.494Z,10.30
2019-03-24T14:15:44.081Z,10.50
2019-03-24T14:18:25.477Z,10.30
2019-03-24T14:21:05.995Z,10.50
2019-03-24T14:23:46.915Z,11.00
2019-03-24T14:26:27.313Z,10.80
2019-03-24T14:29:07.999Z,10.90
2019-03-24T14:31:49.312Z,10.90
2019-03-24T14:34:30.565Z,11.00
2019-03-24T14:37:11.864Z,11.20
2019-03-24T14:42:35.617Z,11.80
2019-03-24T14:45:15.996Z,11.90
2019-03-24T14:47:57.293Z,11.60
2019-03-24T14:50:38.247Z,11.10
2019-03-24T14:53:19.159Z,11.50
2019-03-24T14:56:00.562Z,11.60
2019-03-24T14:58:41.910Z,11.50
2019-03-24T15:01:23.104Z,11.30
2019-03-24T15:04:03.787Z,11.10
2019-03-24T15:06:45.181Z,11.30
2019-03-24T15:09:26.068Z,11.30
2019-03-24T15:12:06.612Z,11.50
2019-03-24T15:14:47.297Z,11.90
2019-03-24T15:17:28.102Z,11.70
2019-03-24T15:20:08.828Z,11.70
2019-03-24T15:22:49.398Z,11.70
2019-03-24T15:25:30.904Z,11.70
2019-03-24T15:28:11.520Z,11.80
2019-03-24T15:30:51.949Z,11.80
2019-03-24T15:33:32.747Z,12.00
2019-03-24T15:36:12.385Z,11.90
2019-03-24T15:39:00.822Z,12.00
2019-03-24T15:41:49.357Z,11.70
2019-03-24T15:44:37.694Z,11.70
2019-03-24T15:47:26.498Z,11.60
2019-03-24T15:50:15.022Z,11.50
2019-03-24T15:53:03.438Z,11.70
2019-03-24T15:55:51.907Z,11.50
2019-03-24T15:58:40.312Z,11.40
2019-03-24T16:01:28.667Z,11.60
2019-03-24T16:07:13.141Z,11.50
2019-03-24T16:10:01.500Z,11.40
2019-03-24T16:12:30.953Z,11.40
2019-03-24T16:17:54.309Z,11.30
2019-03-24T16:20:35.183Z,11.30
2019-03-24T16:23:16.325Z,11.10
2019-03-24T16:25:57.314Z,10.80
2019-03-24T16:28:38.413Z,10.80
2019-03-24T16:31:19.761Z,10.70
2019-03-24T16:34:01.007Z,10.70
2019-03-24T16:36:42.082Z,10.80
2019-03-24T16:39:23.024Z,10.70
2019-03-24T16:42:03.582Z,10.60
2019-03-24T16:44:45.296Z,10.40
2019-03-24T16:47:26.417Z,10.40
2019-03-24T16:50:07.076Z,10.40
2019-03-24T16:52:48.022Z,10.40
2019-03-24T16:55:30.464Z,10.40
2019-03-24T16:58:10.959Z,10.50
2019-03-24T17:00:51.839Z,10.40
2019-03-24T17:03:32.724Z,10.20
2019-03-24T17:06:13.542Z,10.30
2019-03-24T17:08:54.240Z,10.10
2019-03-24T17:11:35.634Z,10.00
2019-03-24T17:14:16.594Z,10.00
2019-03-24T17:16:57.761Z,10.00
2019-03-24T17:22:20.376Z,9.80
2019-03-24T17:25:01.151Z,9.70
2019-03-24T17:27:41.735Z,9.70
2019-03-24T17:30:22.474Z,9.70
2019-03-24T17:33:03.250Z,9.60
2019-03-24T17:35:44.218Z,9.50
2019-03-24T17:38:25.373Z,9.50
2019-03-24T17:41:06.676Z,9.50
2019-03-24T17:43:47.703Z,9.50
2019-03-24T17:46:28.398Z,9.50
2019-03-24T17:49:09.293Z,9.50
2019-03-24T17:52:00.409Z,9.50
2019-03-24T17:54:33.139Z,9.50
2019-03-24T17:57:14.183Z,9.40
2019-03-24T18:02:31.158Z,9.40
2019-03-24T18:05:19.897Z,9.40
2019-03-24T18:08:08.592Z,9.30
2019-03-24T18:10:57.452Z,9.30
2019-03-24T18:13:45.816Z,9.30
2019-03-24T18:16:27.548Z,9.60
2019-03-24T18:19:08.139Z,9.60
2019-03-24T18:21:50.190Z,9.80
2019-03-24T18:24:31.397Z,9.70
2019-03-24T18:27:14.653Z,9.70
2019-03-24T18:29:56.160Z,9.50
2019-03-24T18:35:23.640Z,9.30
2019-03-24T18:38:06.739Z,9.20
2019-03-24T18:40:48.142Z,9.00
2019-03-24T18:43:29.308Z,9.00
2019-03-24T18:45:59.634Z,8.90
2019-03-24T18:48:33.203Z,8.90
2019-03-24T18:51:22.710Z,8.80
2019-03-24T18:54:11.525Z,8.80
2019-03-24T18:57:00.016Z,8.70
2019-03-24T19:00:07.498Z,8.80
2019-03-24T19:02:55.922Z,8.80
2019-03-24T19:05:44.343Z,8.80
2019-03-24T19:08:32.703Z,8.80
2019-03-24T19:11:21.044Z,8.80
2019-03-24T19:14:25.388Z,8.90
2019-03-24T19:17:00.526Z,8.80
2019-03-24T19:19:49.630Z,8.70
2019-03-24T19:22:38.526Z,8.80
2019-03-24T19:25:26.910Z,8.70
2019-03-24T19:28:15.304Z,8.70
2019-03-24T19:30:45.059Z,8.60
2019-03-24T19:33:33.586Z,8.60
2019-03-24T19:36:22.124Z,8.50
2019-03-24T19:39:10.644Z,8.40
2019-03-24T19:41:40.345Z,8.20
2019-03-24T19:44:28.782Z,8.10
2019-03-24T19:47:17.327Z,7.90
2019-03-24T19:50:06.035Z,7.80
2019-03-24T19:52:54.579Z,7.90
2019-03-24T19:55:43.117Z,7.70
2019-03-24T19:58:31.447Z,7.60
2019-03-24T20:01:19.849Z,7.50
2019-03-24T20:04:08.189Z,7.60
2019-03-24T20:06:40.469Z,7.50
2019-03-24T20:09:09.981Z,7.40
2019-03-24T20:11:39.373Z,7.20
2019-03-24T20:14:08.801Z,7.20
2019-03-24T20:16:38.656Z,7.40
2019-03-24T20:19:07.994Z,7.40
2019-03-24T20:21:37.380Z,7.30
2019-03-24T20:24:06.815Z,7.20
2019-03-24T20:26:39.842Z,7.10
2019-03-24T20:29:09.248Z,7.10
2019-03-24T20:31:38.662Z,7.00
2019-03-24T20:34:08.022Z,7.10
2019-03-24T20:36:59.283Z,7.00
2019-03-24T20:39:28.734Z,7.00
2019-03-24T20:41:59.118Z,7.00
2019-03-24T20:44:28.606Z,7.00
2019-03-24T20:46:58.075Z,6.90
2019-03-24T20:49:27.624Z,6.80
2019-03-24T20:52:10.149Z,6.80
2019-03-24T20:54:40.154Z,6.90
2019-03-24T20:57:09.811Z,6.80
2019-03-24T20:59:45.451Z,6.70
2019-03-24T21:02:14.965Z,6.50
2019-03-24T21:04:44.328Z,6.50
2019-03-24T21:07:13.854Z,6.30
2019-03-24T21:09:43.198Z,6.10
2019-03-24T21:12:12.550Z,6.00
2019-03-24T21:14:42.063Z,5.80
2019-03-24T21:17:11.515Z,5.70
2019-03-24T21:19:40.957Z,5.70
2019-03-24T21:22:10.513Z,5.70
2019-03-24T21:24:40.004Z,5.60
2019-03-24T21:27:09.585Z,5.70
2019-03-24T21:29:39.218Z,5.50
2019-03-24T21:32:18.340Z,5.50
2019-03-24T21:34:47.713Z,5.50
2019-03-24T21:37:17.071Z,5.40
2019-03-24T21:39:46.659Z,5.30
2019-03-24T21:42:16.199Z,5.20
2019-03-24T21:44:46.086Z,5.20
2019-03-24T21:47:15.644Z,5.10
2019-03-24T21:49:45.023Z,5.10
2019-03-24T21:52:14.505Z,5.40
2019-03-24T21:54:45.821Z,5.50
2019-03-24T21:57:15.085Z,5.40
2019-03-24T22:00:14.770Z,5.40
2019-03-24T22:02:44.193Z,5.40
2019-03-24T22:05:24.124Z,5.50
2019-03-24T22:07:53.511Z,5.40
2019-03-24T22:10:22.848Z,5.50
2019-03-24T22:12:52.172Z,5.40
2019-03-24T22:15:21.525Z,5.40
2019-03-24T22:17:50.921Z,5.40
2019-03-24T22:20:20.429Z,5.50
2019-03-24T22:22:49.847Z,5.40
2019-03-24T22:25:19.178Z,5.40
2019-03-24T22:27:48.671Z,5.20
2019-03-24T22:30:18.494Z,5.00
2019-03-24T22:32:48.045Z,5.00
2019-03-24T22:35:17.694Z,4.90
2019-03-24T22:45:47.878Z,4.80
2019-03-24T22:48:17.300Z,4.90
2019-03-24T22:50:47.103Z,4.80
2019-03-24T22:53:16.533Z,4.70
2019-03-24T22:55:46.224Z,4.70
2019-03-24T22:58:15.700Z,4.70
2019-03-24T23:00:55.107Z,4.90
2019-03-24T23:03:25.293Z,4.80
2019-03-24T23:05:55.162Z,4.80
2019-03-24T23:08:24.569Z,4.90
2019-03-24T23:10:53.968Z,4.80
2019-03-24T23:13:23.318Z,4.80
2019-03-24T23:15:52.646Z,4.90
2019-03-24T23:18:22.013Z,4.90
2019-03-24T23:20:51.428Z,4.80
2019-03-24T23:23:20.760Z,4.80
2019-03-24T23:25:50.133Z,4.90
2019-03-24T23:28:19.533Z,4.80
2019-03-24T23:30:48.885Z,4.80
2019-03-24T23:33:18.245Z,4.70
2019-03-24T23:35:47.744Z,4.70
2019-03-24T23:38:17.076Z,4.80
2019-03-24T23:40:46.437Z,4.70
2019-03-24T23:43:15.877Z,4.80
2019-03-24T23:45:45.289Z,4.80
2019-03-24T23:48:14.691Z,4.90
2019-03-24T23:50:44.137Z,4.90
2019-03-24T23:53:15.128Z,4.80
2019-03-24T23:55:44.451Z,5.00
2019-03-24T23:58:13.791Z,4.90
